createdAt,value
2023-04-23T00:00:14.948Z,18.84
2023-04-23T00:02:49.968Z,18.83
2023-04-23T00:05:19.032Z,18.81
2023-04-23T00:07:47.673Z,18.79
2023-04-23T00:10:17.231Z,18.76
2023-04-23T00:12:47.923Z,18.72
2023-04-23T00:15:17.858Z,18.70
2023-04-23T00:17:46.381Z,18.70
2023-04-23T00:20:14.974Z,18.69
2023-04-23T00:22:43.573Z,18.67
2023-04-23T00:25:12.506Z,18.63
2023-04-23T00:27:41.211Z,18.61
2023-04-23T00:30:12.665Z,18.57
2023-04-23T00:32:41.761Z,18.54
2023-04-23T00:35:10.664Z,18.51
2023-04-23T00:37:39.056Z,18.48
2023-04-23T00:40:09.656Z,18.44
2023-04-23T00:42:39.796Z,18.40
2023-04-23T00:45:12.500Z,18.38
2023-04-23T00:47:42.342Z,18.36
2023-04-23T00:50:11.603Z,18.35
2023-04-23T00:52:40.884Z,18.32
2023-04-23T00:55:10.338Z,18.29
2023-04-23T00:57:40.026Z,18.25
2023-04-23T01:00:14.031Z,18.21
2023-04-23T01:02:44.644Z,18.19
2023-04-23T01:05:15.414Z,18.16
2023-04-23T01:07:45.767Z,18.13
2023-04-23T01:10:14.543Z,18.10
2023-04-23T01:12:42.909Z,18.08
2023-04-23T01:15:13.575Z,18.06
2023-04-23T01:17:43.355Z,18.04
2023-04-23T01:20:12.687Z,18.03
2023-04-23T01:22:42.507Z,18.01
2023-04-23T01:25:12.122Z,18.00
2023-04-23T01:27:41.025Z,17.97
2023-04-23T01:30:11.079Z,17.96
2023-04-23T01:32:40.295Z,17.94
2023-04-23T01:35:09.963Z,17.92
2023-04-23T01:37:42.243Z,17.90
2023-04-23T01:40:11.390Z,17.88
2023-04-23T01:42:40.290Z,17.85
2023-04-23T01:45:10.872Z,17.83
2023-04-23T01:47:39.394Z,17.80
2023-04-23T01:50:09.901Z,17.79
2023-04-23T01:52:38.355Z,17.77
2023-04-23T01:55:09.363Z,17.76
2023-04-23T01:57:37.889Z,17.75
2023-04-23T02:00:11.429Z,17.73
2023-04-23T02:02:42.374Z,17.71
2023-04-23T02:05:14.657Z,17.66
2023-04-23T02:07:43.902Z,17.64
2023-04-23T02:10:14.555Z,17.58
2023-04-23T02:12:43.374Z,17.54
2023-04-23T02:15:13.799Z,17.49
2023-04-23T02:17:42.340Z,17.46
2023-04-23T02:20:12.708Z,17.42
2023-04-23T02:22:43.038Z,17.39
2023-04-23T02:25:15.749Z,17.36
2023-04-23T02:27:44.244Z,17.34
2023-04-23T02:30:13.559Z,17.31
2023-04-23T02:32:43.195Z,17.29
2023-04-23T02:35:12.808Z,17.26
2023-04-23T02:37:41.268Z,17.21
2023-04-23T02:40:11.390Z,17.14
2023-04-23T02:42:42.576Z,17.10
2023-04-23T02:45:13.429Z,17.05
2023-04-23T02:47:41.853Z,17.03
2023-04-23T02:50:10.931Z,16.99
2023-04-23T02:52:39.341Z,16.96
2023-04-23T02:55:09.813Z,16.93
2023-04-23T02:57:40.268Z,16.89
2023-04-23T03:00:12.323Z,16.84
2023-04-23T03:02:40.810Z,16.81
2023-04-23T03:05:10.589Z,16.78
2023-04-23T03:07:39.038Z,16.76
2023-04-23T03:10:09.383Z,16.72
2023-04-23T03:12:37.802Z,16.71
2023-04-23T03:15:09.168Z,16.68
2023-04-23T03:17:38.665Z,16.67
2023-04-23T03:20:10.903Z,16.65
2023-04-23T03:22:39.317Z,16.65
2023-04-23T03:25:08.731Z,16.63
2023-04-23T03:27:39.029Z,16.61
2023-04-23T03:30:11.792Z,16.59
2023-04-23T03:32:40.521Z,16.57
2023-04-23T03:35:10.308Z,16.56
2023-04-23T03:37:38.737Z,16.53
2023-04-23T03:40:09.346Z,16.51
2023-04-23T03:42:37.828Z,16.50
2023-04-23T03:45:08.105Z,16.47
2023-04-23T03:47:37.967Z,16.47
2023-04-23T03:50:08.395Z,16.45
2023-04-23T03:52:37.333Z,16.45
2023-04-23T03:55:07.192Z,16.43
2023-04-23T03:57:35.652Z,16.41
2023-04-23T04:00:04.931Z,16.40
2023-04-23T04:02:33.474Z,16.40
2023-04-23T04:05:03.528Z,16.40
2023-04-23T04:07:32.274Z,16.41
2023-04-23T04:10:03.093Z,16.41
2023-04-23T04:12:31.430Z,16.40
2023-04-23T04:14:59.854Z,16.43
2023-04-23T04:17:28.296Z,16.45
2023-04-23T04:19:56.788Z,16.46
2023-04-23T04:22:26.532Z,16.48
2023-04-23T04:24:54.922Z,16.51
2023-04-23T04:27:23.320Z,16.53
2023-04-23T04:29:51.874Z,16.54
2023-04-23T04:32:20.477Z,16.56
2023-04-23T04:34:50.129Z,16.59
2023-04-23T04:37:18.475Z,16.62
2023-04-23T04:39:48.305Z,16.63
2023-04-23T04:42:16.851Z,16.67
2023-04-23T04:44:45.254Z,16.70
2023-04-23T04:47:16.364Z,16.73
2023-04-23T04:49:45.052Z,16.77
2023-04-23T04:52:13.405Z,16.82
2023-04-23T04:54:42.542Z,16.88
2023-04-23T04:57:12.582Z,16.93
2023-04-23T04:59:41.251Z,17.00
2023-04-23T05:02:09.924Z,17.06
2023-04-23T05:04:38.297Z,17.11
2023-04-23T05:07:06.752Z,17.15
2023-04-23T05:09:35.146Z,17.22
2023-04-23T05:12:03.537Z,17.30
2023-04-23T05:14:33.258Z,17.37
2023-04-23T05:17:01.810Z,17.45
2023-04-23T05:19:30.277Z,17.53
2023-04-23T05:21:58.702Z,17.64
2023-04-23T05:24:27.491Z,17.72
2023-04-23T05:26:56.654Z,17.80
2023-04-23T05:29:25.195Z,17.90
2023-04-23T05:31:55.119Z,17.99
2023-04-23T05:34:23.483Z,18.13
2023-04-23T05:36:51.862Z,18.34
2023-04-23T05:39:20.389Z,18.70
2023-04-23T05:41:48.761Z,19.00
2023-04-23T05:44:17.149Z,19.16
2023-04-23T05:46:45.562Z,19.31
2023-04-23T05:49:15.413Z,19.59
2023-04-23T05:51:45.382Z,19.93
2023-04-23T05:54:14.856Z,20.11
2023-04-23T05:56:43.223Z,20.14
2023-04-23T05:59:12.043Z,20.15
2023-04-23T06:01:40.773Z,20.12
2023-04-23T06:04:09.800Z,20.11
2023-04-23T06:06:39.772Z,20.11
2023-04-23T06:09:08.499Z,20.14
2023-04-23T06:11:37.095Z,20.18
2023-04-23T06:14:05.977Z,20.22
2023-04-23T06:16:34.337Z,20.27
2023-04-23T06:19:02.811Z,20.35
2023-04-23T06:21:32.520Z,20.45
2023-04-23T06:24:02.307Z,20.53
2023-04-23T06:26:33.122Z,20.63
2023-04-23T06:29:01.633Z,20.75
2023-04-23T06:31:30.355Z,20.86
2023-04-23T06:33:58.784Z,20.96
2023-04-23T06:36:27.176Z,21.09
2023-04-23T06:38:55.673Z,21.20
2023-04-23T06:41:25.646Z,21.33
2023-04-23T06:43:54.091Z,21.48
2023-04-23T06:46:22.588Z,21.54
2023-04-23T06:48:50.982Z,21.65
2023-04-23T06:51:19.538Z,21.80
2023-04-23T06:53:48.734Z,21.93
2023-04-23T06:56:17.102Z,22.05
2023-04-23T06:58:46.864Z,22.16
2023-04-23T07:01:15.524Z,22.30
2023-04-23T07:03:45.174Z,22.43
2023-04-23T07:06:14.189Z,22.55
2023-04-23T07:08:42.625Z,22.67
2023-04-23T07:11:10.964Z,22.79
2023-04-23T07:13:39.816Z,22.92
2023-04-23T07:16:09.842Z,22.98
2023-04-23T07:18:38.293Z,23.10
2023-04-23T07:21:06.918Z,23.25
2023-04-23T07:23:35.384Z,23.32
2023-04-23T07:26:03.902Z,23.35
2023-04-23T07:28:32.956Z,23.42
2023-04-23T07:31:01.479Z,23.58
2023-04-23T07:33:31.399Z,23.69
2023-04-23T07:35:59.750Z,23.83
2023-04-23T07:38:28.181Z,23.94
2023-04-23T07:40:56.678Z,24.06
2023-04-23T07:43:25.123Z,24.18
2023-04-23T07:45:54.477Z,24.30
2023-04-23T07:48:22.910Z,24.41
2023-04-23T07:50:52.632Z,24.53
2023-04-23T07:53:21.035Z,24.61
2023-04-23T07:55:49.388Z,24.70
2023-04-23T07:58:17.748Z,24.81
2023-04-23T08:00:46.380Z,24.88
2023-04-23T08:03:15.038Z,24.92
2023-04-23T08:05:43.789Z,24.98
2023-04-23T08:08:14.127Z,25.02
2023-04-23T08:10:42.730Z,25.06
2023-04-23T08:13:11.175Z,25.15
2023-04-23T08:15:39.700Z,25.27
2023-04-23T08:18:08.232Z,25.42
2023-04-23T08:20:36.666Z,25.56
2023-04-23T08:23:05.569Z,25.68
2023-04-23T08:25:35.690Z,25.79
2023-04-23T08:28:04.121Z,25.91
2023-04-23T08:30:33.806Z,26.05
2023-04-23T08:33:02.279Z,26.19
2023-04-23T08:35:30.588Z,26.29
2023-04-23T08:37:59.148Z,26.35
2023-04-23T08:40:30.636Z,26.42
2023-04-23T08:43:04.580Z,26.50
2023-04-23T08:45:41.486Z,26.58
2023-04-23T08:48:12.062Z,26.66
2023-04-23T08:50:42.510Z,26.79
2023-04-23T08:53:11.333Z,26.94
2023-04-23T08:55:39.834Z,27.10
2023-04-23T08:58:09.740Z,27.26
2023-04-23T09:00:39.395Z,27.31
2023-04-23T09:03:08.232Z,27.33
2023-04-23T09:05:37.293Z,27.34
2023-04-23T09:08:05.760Z,27.38
2023-04-23T09:10:38.297Z,27.46
2023-04-23T09:13:08.458Z,27.60
2023-04-23T09:15:43.451Z,27.80
2023-04-23T09:18:12.376Z,28.05
2023-04-23T09:20:40.831Z,28.24
2023-04-23T09:23:10.203Z,28.38
2023-04-23T09:25:38.608Z,28.46
2023-04-23T09:28:10.949Z,28.52
2023-04-23T09:30:45.897Z,28.61
2023-04-23T09:33:14.800Z,28.65
2023-04-23T09:35:43.403Z,28.72
2023-04-23T09:38:11.789Z,28.83
2023-04-23T09:40:40.154Z,28.91
2023-04-23T09:43:13.738Z,28.97
2023-04-23T09:45:50.354Z,29.06
2023-04-23T09:48:18.778Z,29.11
2023-04-23T09:50:47.637Z,29.10
2023-04-23T09:53:16.161Z,28.99
2023-04-23T09:55:46.566Z,28.81
2023-04-23T09:58:17.222Z,28.65
2023-04-23T10:00:45.975Z,28.55
2023-04-23T10:03:15.069Z,28.49
2023-04-23T10:06:00.459Z,28.42
2023-04-23T10:08:31.006Z,28.39
2023-04-23T10:11:10.152Z,28.29
2023-04-23T10:13:49.285Z,28.15
2023-04-23T10:16:24.349Z,28.05
2023-04-23T10:18:57.006Z,27.96
2023-04-23T10:21:36.729Z,27.90
2023-04-23T10:24:16.087Z,27.93
2023-04-23T10:26:45.653Z,27.97
2023-04-23T10:29:17.360Z,27.96
2023-04-23T10:31:47.189Z,27.96
2023-04-23T10:34:17.258Z,28.01
2023-04-23T10:36:45.705Z,28.09
2023-04-23T10:39:20.806Z,28.20
2023-04-23T10:41:56.535Z,28.52
2023-04-23T10:44:56.563Z,28.91
2023-04-23T10:47:23.157Z,29.46
2023-04-23T10:49:51.747Z,29.90
2023-04-23T10:52:23.802Z,30.36
2023-04-23T10:55:00.884Z,30.79
2023-04-23T10:57:30.349Z,31.21
2023-04-23T11:00:04.776Z,31.69
2023-04-23T11:02:45.328Z,32.12
2023-04-23T11:05:13.866Z,32.51
2023-04-23T11:07:42.287Z,32.84
2023-04-23T11:10:16.307Z,33.13
2023-04-23T11:12:46.039Z,33.46
2023-04-23T11:15:19.817Z,33.68
2023-04-23T11:18:02.239Z,33.81
2023-04-23T11:20:30.936Z,34.00
2023-04-23T11:22:59.387Z,34.34
2023-04-23T11:25:30.625Z,34.60
2023-04-23T11:27:59.645Z,34.74
2023-04-23T11:30:31.467Z,34.82
2023-04-23T11:33:01.708Z,34.88
2023-04-23T11:35:37.875Z,34.94
2023-04-23T11:38:10.209Z,34.96
2023-04-23T11:40:40.442Z,34.88
2023-04-23T11:43:09.787Z,34.83
2023-04-23T11:45:39.594Z,34.80
2023-04-23T11:48:08.391Z,34.83
2023-04-23T11:50:38.500Z,35.09
2023-04-23T11:53:08.020Z,35.53
2023-04-23T11:55:36.399Z,36.10
2023-04-23T11:58:05.023Z,36.65
2023-04-23T12:00:33.525Z,37.13
2023-04-23T12:03:06.070Z,37.61
2023-04-23T12:05:37.078Z,37.89
2023-04-23T12:08:10.912Z,37.98
2023-04-23T12:10:47.115Z,37.90
2023-04-23T12:13:16.988Z,37.81
2023-04-23T12:15:50.293Z,37.64
2023-04-23T12:18:20.822Z,37.42
2023-04-23T12:20:49.174Z,37.19
2023-04-23T12:23:17.681Z,36.92
2023-04-23T12:25:46.640Z,36.72
2023-04-23T12:28:15.044Z,36.60
2023-04-23T12:30:46.362Z,36.41
2023-04-23T12:33:14.943Z,36.15
2023-04-23T12:35:46.424Z,36.00
2023-04-23T12:38:24.986Z,36.13
2023-04-23T12:40:53.764Z,36.33
2023-04-23T12:43:22.293Z,36.51
2023-04-23T12:45:52.158Z,36.61
2023-04-23T12:48:20.560Z,36.55
2023-04-23T12:50:50.878Z,36.37
2023-04-23T12:53:20.666Z,36.23
2023-04-23T12:55:50.359Z,36.10
2023-04-23T12:58:18.749Z,36.19
2023-04-23T13:00:47.527Z,36.39
2023-04-23T13:03:17.542Z,36.63
2023-04-23T13:05:46.105Z,36.90
2023-04-23T13:08:15.763Z,36.96
2023-04-23T13:10:46.053Z,36.98
2023-04-23T13:13:14.436Z,37.19
2023-04-23T13:15:43.985Z,37.51
2023-04-23T13:18:12.337Z,37.66
2023-04-23T13:20:40.738Z,37.84
2023-04-23T13:23:11.431Z,38.01
2023-04-23T13:25:41.460Z,38.14
2023-04-23T13:28:09.783Z,38.02
2023-04-23T13:30:38.255Z,37.61
2023-04-23T13:33:06.679Z,37.09
2023-04-23T13:35:37.795Z,36.60
2023-04-23T13:38:06.399Z,36.16
2023-04-23T13:40:35.509Z,35.86
2023-04-23T13:43:06.107Z,35.68
2023-04-23T13:45:34.433Z,35.52
2023-04-23T13:48:03.163Z,35.36
2023-04-23T13:50:31.676Z,35.22
2023-04-23T13:53:00.135Z,35.14
2023-04-23T13:55:28.587Z,35.04
2023-04-23T13:57:58.817Z,34.97
2023-04-23T14:00:30.547Z,34.78
2023-04-23T14:02:59.099Z,34.57
2023-04-23T14:05:27.747Z,34.43
2023-04-23T14:07:56.378Z,34.39
2023-04-23T14:10:24.874Z,34.30
2023-04-23T14:12:54.574Z,34.05
2023-04-23T14:15:23.371Z,33.77
2023-04-23T14:17:53.297Z,33.55
2023-04-23T14:20:22.398Z,33.38
2023-04-23T14:22:56.421Z,33.21
2023-04-23T14:25:35.620Z,33.01
2023-04-23T14:28:18.096Z,32.84
2023-04-23T14:30:48.634Z,32.67
2023-04-23T14:33:18.680Z,32.52
2023-04-23T14:35:47.389Z,32.36
2023-04-23T14:38:16.035Z,32.15
2023-04-23T14:40:44.452Z,31.96
2023-04-23T14:43:15.979Z,31.80
2023-04-23T14:45:44.904Z,31.67
2023-04-23T14:48:13.384Z,31.53
2023-04-23T14:50:43.188Z,31.37
2023-04-23T14:53:11.544Z,31.23
2023-04-23T14:55:40.031Z,31.16
2023-04-23T14:58:08.410Z,31.11
2023-04-23T15:00:36.818Z,31.07
2023-04-23T15:03:10.653Z,31.02
2023-04-23T15:05:40.102Z,30.95
2023-04-23T15:08:10.032Z,30.83
2023-04-23T15:10:38.643Z,30.74
2023-04-23T15:13:10.931Z,30.63
2023-04-23T15:15:51.435Z,30.51
2023-04-23T15:18:21.092Z,30.48
2023-04-23T15:20:49.547Z,30.41
2023-04-23T15:23:21.139Z,30.37
2023-04-23T15:25:51.943Z,30.35
2023-04-23T15:28:20.306Z,30.35
2023-04-23T15:30:48.695Z,30.37
2023-04-23T15:33:17.796Z,30.40
2023-04-23T15:35:46.242Z,30.40
2023-04-23T15:38:14.592Z,30.41
2023-04-23T15:40:44.348Z,30.38
2023-04-23T15:43:13.756Z,30.34
2023-04-23T15:45:42.695Z,30.26
2023-04-23T15:48:11.317Z,30.17
2023-04-23T15:50:39.828Z,30.08
2023-04-23T15:53:08.279Z,29.98
2023-04-23T15:55:38.957Z,29.83
2023-04-23T15:58:08.840Z,29.70
2023-04-23T16:00:37.872Z,29.60
2023-04-23T16:03:07.169Z,29.49
2023-04-23T16:05:37.195Z,29.37
2023-04-23T16:08:05.947Z,29.25
2023-04-23T16:10:34.729Z,29.17
2023-04-23T16:13:04.133Z,29.07
2023-04-23T16:15:34.815Z,28.97
2023-04-23T16:18:03.624Z,28.88
2023-04-23T16:20:33.326Z,28.77
2023-04-23T16:23:03.126Z,28.67
2023-04-23T16:25:31.745Z,28.57
2023-04-23T16:28:00.796Z,28.48
2023-04-23T16:30:29.624Z,28.39
2023-04-23T16:33:00.043Z,28.33
2023-04-23T16:35:29.591Z,28.27
2023-04-23T16:37:59.676Z,28.21
2023-04-23T16:40:28.865Z,28.15
2023-04-23T16:42:57.856Z,28.08
2023-04-23T16:45:26.558Z,28.02
2023-04-23T16:47:55.362Z,27.96
2023-04-23T16:50:25.756Z,27.90
2023-04-23T16:52:56.929Z,27.86
2023-04-23T16:55:26.303Z,27.78
2023-04-23T16:57:55.750Z,27.74
2023-04-23T17:00:24.244Z,27.69
2023-04-23T17:02:52.858Z,27.64
2023-04-23T17:05:26.093Z,27.57
2023-04-23T17:07:54.871Z,27.52
2023-04-23T17:10:23.443Z,27.46
2023-04-23T17:12:54.271Z,27.41
2023-04-23T17:15:23.787Z,27.36
2023-04-23T17:17:53.246Z,27.32
2023-04-23T17:20:22.928Z,27.24
2023-04-23T17:22:53.278Z,27.12
2023-04-23T17:25:22.439Z,26.97
2023-04-23T17:27:51.162Z,26.82
2023-04-23T17:30:20.049Z,26.67
2023-04-23T17:32:49.030Z,26.55
2023-04-23T17:35:19.441Z,26.39
2023-04-23T17:37:51.743Z,26.23
2023-04-23T17:40:22.518Z,26.07
2023-04-23T17:42:51.731Z,25.93
2023-04-23T17:45:22.982Z,25.76
2023-04-23T17:47:54.599Z,25.63
2023-04-23T17:50:23.588Z,25.52
2023-04-23T17:52:54.832Z,25.42
2023-04-23T17:55:27.047Z,25.33
2023-04-23T17:57:56.243Z,25.22
2023-04-23T18:00:25.643Z,25.10
2023-04-23T18:02:56.977Z,24.99
2023-04-23T18:05:27.029Z,24.90
2023-04-23T18:07:57.007Z,24.81
2023-04-23T18:10:29.283Z,24.74
2023-04-23T18:12:58.691Z,24.66
2023-04-23T18:15:32.642Z,24.59
2023-04-23T18:18:02.579Z,24.54
2023-04-23T18:20:34.389Z,24.48
2023-04-23T18:23:03.711Z,24.42
2023-04-23T18:25:34.157Z,24.36
2023-04-23T18:28:04.236Z,24.32
2023-04-23T18:30:34.269Z,24.29
2023-04-23T18:33:14.135Z,24.25
2023-04-23T18:35:44.399Z,24.23
2023-04-23T18:38:26.273Z,24.17
2023-04-23T18:40:59.576Z,24.16
2023-04-23T18:43:29.993Z,24.13
2023-04-23T18:45:58.656Z,24.11
2023-04-23T18:48:54.064Z,24.03
2023-04-23T18:51:31.702Z,24.02
2023-04-23T18:54:04.377Z,23.98
2023-04-23T18:56:35.951Z,23.92
2023-04-23T18:59:05.125Z,23.88
2023-04-23T19:01:37.587Z,23.83
2023-04-23T19:04:06.137Z,23.79
2023-04-23T19:06:35.174Z,23.75
2023-04-23T19:09:04.792Z,23.70
2023-04-23T19:11:39.254Z,23.65
2023-04-23T19:14:10.111Z,23.61
2023-04-23T19:16:44.764Z,23.57
2023-04-23T19:19:16.778Z,23.53
2023-04-23T19:21:46.268Z,23.50
2023-04-23T19:24:15.536Z,23.46
2023-04-23T19:26:47.226Z,23.43
2023-04-23T19:29:17.424Z,23.41
2023-04-23T19:31:46.770Z,23.40
2023-04-23T19:34:16.554Z,23.37
2023-04-23T19:36:45.889Z,23.35
2023-04-23T19:39:15.301Z,23.33
2023-04-23T19:41:48.083Z,23.30
2023-04-23T19:44:17.572Z,23.27
2023-04-23T19:46:46.732Z,23.25
2023-04-23T19:49:16.835Z,23.21
2023-04-23T19:51:46.571Z,23.18
2023-04-23T19:54:15.362Z,23.15
2023-04-23T19:56:45.943Z,23.12
2023-04-23T19:59:17.536Z,23.10
2023-04-23T20:01:47.591Z,23.08
2023-04-23T20:04:16.713Z,23.04
2023-04-23T20:06:47.233Z,23.02
2023-04-23T20:09:19.220Z,23.00
2023-04-23T20:11:52.629Z,22.97
2023-04-23T20:14:21.047Z,22.99
2023-04-23T20:16:49.926Z,23.01
2023-04-23T20:19:19.236Z,23.02
2023-04-23T20:21:48.927Z,23.04
2023-04-23T20:24:17.420Z,23.07
2023-04-23T20:26:45.854Z,23.09
2023-04-23T20:29:15.891Z,23.11
2023-04-23T20:31:49.231Z,23.13
2023-04-23T20:34:19.053Z,23.14
2023-04-23T20:36:49.008Z,23.14
2023-04-23T20:39:22.721Z,23.11
2023-04-23T20:41:52.663Z,23.07
2023-04-23T20:44:23.890Z,23.02
2023-04-23T20:46:52.277Z,23.00
2023-04-23T20:49:21.533Z,22.96
2023-04-23T20:51:49.897Z,22.92
2023-04-23T20:54:18.516Z,22.86
2023-04-23T20:56:46.985Z,22.83
2023-04-23T20:59:15.928Z,22.79
2023-04-23T21:01:45.768Z,22.75
2023-04-23T21:04:14.483Z,22.74
2023-04-23T21:06:43.923Z,22.75
2023-04-23T21:09:12.344Z,22.72
2023-04-23T21:11:41.084Z,22.70
2023-04-23T21:14:09.634Z,22.70
2023-04-23T21:16:39.805Z,22.69
2023-04-23T21:19:09.675Z,22.68
2023-04-23T21:21:38.241Z,22.69
2023-04-23T21:24:07.016Z,22.68
2023-04-23T21:26:35.478Z,22.69
2023-04-23T21:29:03.940Z,22.70
2023-04-23T21:31:47.072Z,22.69
2023-04-23T21:34:17.199Z,22.69
2023-04-23T21:36:45.916Z,22.70
2023-04-23T21:39:14.781Z,22.68
2023-04-23T21:41:44.356Z,22.69
2023-04-23T21:44:12.726Z,22.68
2023-04-23T21:46:43.154Z,22.66
2023-04-23T21:49:12.059Z,22.65
2023-04-23T21:51:41.864Z,22.62
2023-04-23T21:54:10.802Z,22.60
2023-04-23T21:56:39.445Z,22.57
2023-04-23T21:59:07.972Z,22.53
2023-04-23T22:01:36.927Z,22.50
2023-04-23T22:04:05.722Z,22.48
2023-04-23T22:06:35.230Z,22.44
2023-04-23T22:09:05.882Z,22.40
2023-04-23T22:11:34.762Z,22.36
2023-04-23T22:14:03.362Z,22.30
2023-04-23T22:16:31.852Z,22.26
2023-04-23T22:19:00.555Z,22.21
2023-04-23T22:21:29.353Z,22.14
2023-04-23T22:23:57.822Z,22.09
2023-04-23T22:26:27.689Z,22.03
2023-04-23T22:28:56.480Z,21.98
2023-04-23T22:31:24.940Z,21.93
2023-04-23T22:33:53.360Z,21.88
2023-04-23T22:36:21.762Z,21.83
2023-04-23T22:38:50.153Z,21.79
2023-04-23T22:41:18.592Z,21.73
2023-04-23T22:43:48.402Z,21.69
2023-04-23T22:46:16.984Z,21.64
2023-04-23T22:48:47.789Z,21.60
2023-04-23T22:51:16.325Z,21.57
2023-04-23T22:53:44.695Z,21.54
2023-04-23T22:56:13.209Z,21.49
2023-04-23T22:58:41.647Z,21.45
2023-04-23T23:01:11.440Z,21.39
2023-04-23T23:03:39.970Z,21.35
2023-04-23T23:06:08.585Z,21.29
2023-04-23T23:08:37.009Z,21.22
2023-04-23T23:11:05.501Z,21.17
2023-04-23T23:13:33.899Z,21.12
2023-04-23T23:16:05.792Z,21.07
2023-04-23T23:18:35.632Z,21.06
2023-04-23T23:21:04.074Z,21.06
2023-04-23T23:23:32.538Z,21.08
2023-04-23T23:26:00.964Z,21.08
2023-04-23T23:28:29.323Z,21.11
2023-04-23T23:30:57.967Z,21.10
2023-04-23T23:33:27.176Z,21.09
2023-04-23T23:35:57.562Z,21.04
2023-04-23T23:38:25.878Z,21.02
2023-04-23T23:40:54.292Z,20.95
2023-04-23T23:43:22.656Z,20.91
2023-04-23T23:45:51.197Z,20.86
2023-04-23T23:48:19.722Z,20.81
2023-04-23T23:50:48.169Z,20.77
2023-04-23T23:53:17.920Z,20.72
2023-04-23T23:55:46.312Z,20.67
2023-04-23T23:58:14.756Z,20.62
